Time;durP1;ratioP1;P1;durP2;ratioP2;P2;SDS_P1;SDS_P2;PMS_P1;PMS_P2;Temp;Humidity;BMP_temperature;BMP_pressure;BME280_temperature;BME280_humidity;BME280_pressure;Samples;Min_cycle;Max_cycle;Signal;HPM_P1;HPM_P2
2021/07/17 00:00:10;;;;;;;28.58;11.88;;;;;;;17.67;79.80;102195.66;4984573;28;20030;-73
2021/07/17 00:02:38;;;;;;;;;;;;;;;17.66;79.77;102198.44;4984285;28;20902;-74
2021/07/17 00:05:14;;;;;;;22.77;9.93;;;;;;;17.61;79.88;102198.94;4988750;28;20021;-74
2021/07/17 00:07:40;;;;;;;23.33;11.30;;;;;;;17.61;80.03;102192.88;4982174;28;20073;-74
2021/07/17 00:10:13;;;;;;;29.88;12.02;;;;;;;17.66;80.01;102204.47;4992206;28;20502;-74
2021/07/17 00:12:39;;;;;;;28.25;9.93;;;;;;;17.60;80.18;102196.50;4982806;28;20038;-74
2021/07/17 00:15:05;;;;;;;27.38;10.70;;;;;;;17.59;80.26;102200.91;4984436;28;20084;-74
2021/07/17 00:17:31;;;;;;;24.58;11.35;;;;;;;17.57;79.96;102194.19;4980692;28;20192;-74
2021/07/17 00:19:57;;;;;;;26.48;11.45;;;;;;;17.58;80.14;102196.66;4983148;28;20113;-74
2021/07/17 00:22:22;;;;;;;28.58;10.63;;;;;;;17.57;80.26;102188.94;4975978;28;20050;-73
2021/07/17 00:24:47;;;;;;;30.90;10.82;;;;;;;17.58;80.34;102194.03;4995742;28;20030;-73
2021/07/17 00:27:13;;;;;;;31.55;9.63;;;;;;;17.55;80.54;102193.53;4988322;28;20327;-74
2021/07/17 00:29:38;;;;;;;26.33;9.43;;;;;;;17.56;80.55;102185.53;4966691;28;20057;-73
2021/07/17 00:32:04;;;;;;;25.70;10.35;;;;;;;17.56;80.53;102189.94;4971355;28;20033;-75
2021/07/17 00:34:30;;;;;;;24.15;9.38;;;;;;;17.52;80.93;102189.47;4973051;23;20037;-72
2021/07/17 00:36:55;;;;;;;23.77;10.63;;;;;;;17.52;80.61;102179.78;5033244;28;20051;-72
2021/07/17 00:39:20;;;;;;;28.92;10.45;;;;;;;17.51;80.57;102179.94;5037120;28;20044;-72
2021/07/17 00:41:46;;;;;;;33.75;10.18;;;;;;;17.50;80.48;102188.81;5047691;28;20045;-72
2021/07/17 00:44:13;;;;;;;23.35;9.20;;;;;;;17.47;80.57;102184.72;5029032;28;20050;-72
2021/07/17 00:46:39;;;;;;;25.92;10.35;;;;;;;17.47;80.61;102183.91;5037641;28;20083;-72
2021/07/17 00:49:07;;;;;;;22.58;9.85;;;;;;;17.48;80.85;102185.56;5041445;28;20051;-71
2021/07/17 00:51:33;;;;;;;31.60;10.55;;;;;;;17.43;80.75;102178.16;5034710;28;20494;-72
2021/07/17 00:54:01;;;;;;;24.98;10.07;;;;;;;17.40;80.70;102186.34;5036258;28;20033;-72
2021/07/17 00:56:28;;;;;;;24.58;8.90;;;;;;;17.39;80.75;102178.69;5030796;28;20087;-72
2021/07/17 00:58:58;;;;;;;29.13;9.98;;;;;;;17.39;80.54;102184.75;5023422;28;20036;-72
2021/07/17 01:01:25;;;;;;;27.92;10.02;;;;;;;17.35;80.07;102183.44;5032081;28;20033;-72
2021/07/17 01:03:51;;;;;;;24.60;9.15;;;;;;;17.32;80.39;102184.56;5019952;28;20110;-72
2021/07/17 01:06:17;;;;;;;31.13;10.27;;;;;;;17.35;80.12;102185.22;5024871;28;20033;-72
2021/07/17 01:08:42;;;;;;;29.92;10.50;;;;;;;17.31;80.17;102185.59;5030489;28;20044;-72
2021/07/17 01:11:08;;;;;;;28.52;10.80;;;;;;;17.26;80.64;102187.06;5026236;28;20030;-72
2021/07/17 01:13:33;;;;;;;24.45;10.32;;;;;;;17.26;80.68;102187.88;5027804;28;20028;-72
2021/07/17 01:15:59;;;;;;;24.83;10.82;;;;;;;17.25;80.46;102195.91;5012164;28;20033;-72
2021/07/17 01:18:25;;;;;;;26.60;10.38;;;;;;;17.19;80.94;102180.84;5030949;28;20630;-71
2021/07/17 01:20:52;;;;;;;27.00;10.57;;;;;;;17.21;81.05;102194.59;5037568;28;20045;-72
2021/07/17 01:23:19;;;;;;;29.02;10.70;;;;;;;17.20;81.05;102199.03;5031624;28;20061;-72
2021/07/17 01:25:45;;;;;;;28.77;10.85;;;;;;;17.20;81.13;102188.56;5031846;28;20025;-72
2021/07/17 01:28:10;;;;;;;28.65;11.20;;;;;;;17.20;81.06;102190.34;5034066;28;20051;-71
2021/07/17 01:30:37;;;;;;;23.55;10.70;;;;;;;17.20;81.29;102200.84;5028095;28;20061;-72
2021/07/17 01:33:03;;;;;;;36.88;11.90;;;;;;;17.19;81.25;102193.94;5029092;28;20037;-72
2021/07/17 01:35:29;;;;;;;37.40;12.70;;;;;;;17.20;81.06;102195.59;5030890;28;20061;-72
2021/07/17 01:37:54;;;;;;;47.45;13.95;;;;;;;17.15;81.20;102201.31;5029891;28;20660;-72
2021/07/17 01:40:21;;;;;;;22.42;9.82;;;;;;;17.11;81.53;102200.03;5048017;28;20506;-72
2021/07/17 01:42:52;;;;;;;26.00;10.45;;;;;;;17.12;81.47;102207.72;5029477;28;20041;-72
2021/07/17 01:45:32;;;;;;;30.15;11.65;;;;;;;17.15;81.24;102200.50;5026106;28;20462;-72
2021/07/17 01:47:58;;;;;;;27.13;10.20;;;;;;;17.13;81.47;102198.06;5026589;28;20037;-71
2021/07/17 01:50:29;;;;;;;31.83;11.27;;;;;;;17.11;81.48;102192.16;5032209;28;20456;-72
2021/07/17 01:52:55;;;;;;;34.10;10.27;;;;;;;17.11;81.44;102195.59;5030650;28;20029;-72
2021/07/17 01:55:21;;;;;;;24.30;10.50;;;;;;;17.15;81.22;102195.28;5026921;28;20105;-72
2021/07/17 01:57:49;;;;;;;24.05;10.73;;;;;;;17.12;81.58;102191.16;5023173;28;20155;-72
2021/07/17 02:00:16;;;;;;;29.08;11.07;;;;;;;17.11;81.58;102197.41;5023299;28;20029;-72
2021/07/17 02:02:43;;;;;;;26.65;10.45;;;;;;;17.10;81.65;102196.59;5027629;28;20059;-71
2021/07/17 02:05:10;;;;;;;32.67;12.20;;;;;;;17.08;81.63;102193.31;5026817;28;20043;-72
2021/07/17 02:07:35;;;;;;;30.95;11.70;;;;;;;17.07;81.55;102180.38;5029303;28;20045;-72
2021/07/17 02:10:06;;;;;;;32.47;11.93;;;;;;;17.08;81.71;102184.63;5034383;28;20025;-72
2021/07/17 02:12:32;;;;;;;21.73;10.98;;;;;;;17.02;81.97;102182.66;5035060;28;20336;-72
2021/07/17 02:14:57;;;;;;;32.88;12.88;;;;;;;17.07;81.83;102185.63;5028443;28;20041;-72
2021/07/17 02:17:23;;;;;;;27.45;10.15;;;;;;;17.01;82.03;102184.47;5025994;28;20029;-72
2021/07/17 02:19:49;;;;;;;29.73;10.65;;;;;;;16.98;82.35;102184.78;5032089;28;20041;-72
2021/07/17 02:22:14;;;;;;;31.55;12.32;;;;;;;16.98;82.46;102179.56;5034682;28;20034;-72
2021/07/17 02:24:40;;;;;;;38.03;11.60;;;;;;;16.97;82.48;102183.19;5022984;28;20021;-72
2021/07/17 02:27:05;;;;;;;28.60;11.02;;;;;;;16.97;82.46;102180.56;5026041;28;20030;-72
2021/07/17 02:29:31;;;;;;;21.35;9.80;;;;;;;16.97;82.52;102177.09;5027366;28;20037;-72
2021/07/17 02:31:56;;;;;;;23.45;10.75;;;;;;;16.99;82.57;102180.38;5019327;28;20509;-72
2021/07/17 02:34:21;;;;;;;24.05;10.68;;;;;;;17.01;82.39;102191.50;5024285;28;20490;-72
2021/07/17 02:36:47;;;;;;;34.60;12.55;;;;;;;17.02;82.27;102191.34;5021517;28;20033;-72
2021/07/17 02:39:14;;;;;;;26.23;10.98;;;;;;;16.94;82.47;102204.44;5027174;28;20045;-72
2021/07/17 02:41:40;;;;;;;42.90;12.45;;;;;;;16.93;82.58;102201.03;5034740;28;20022;-72
2021/07/17 02:44:06;;;;;;;28.52;11.50;;;;;;;16.91;82.58;102196.91;5025418;28;20060;-72
2021/07/17 02:46:31;;;;;;;27.00;10.80;;;;;;;16.91;82.93;102195.13;5022979;28;20030;-72
2021/07/17 02:48:57;;;;;;;25.27;10.93;;;;;;;16.93;83.05;102189.69;5028489;28;20052;-72
2021/07/17 02:51:22;;;;;;;25.80;10.82;;;;;;;16.93;83.09;102192.31;5020060;28;20049;-71
2021/07/17 02:53:48;;;;;;;38.30;12.73;;;;;;;16.92;83.26;102186.28;5025870;28;20088;-72
2021/07/17 02:56:13;;;;;;;25.92;10.57;;;;;;;16.92;83.36;102178.41;5029155;28;20044;-71
2021/07/17 02:58:39;;;;;;;32.58;12.18;;;;;;;16.90;83.56;102187.44;5020194;28;20481;-72
2021/07/17 03:01:04;;;;;;;40.00;11.85;;;;;;;16.92;83.42;102188.09;5030135;28;20033;-71
2021/07/17 03:03:29;;;;;;;40.38;12.90;;;;;;;16.89;83.20;102178.72;5032868;28;20038;-71
2021/07/17 03:05:55;;;;;;;25.13;10.15;;;;;;;16.88;83.31;102178.91;5029154;28;20029;-71
2021/07/17 03:08:22;;;;;;;28.67;11.52;;;;;;;16.90;83.20;102182.19;5032548;28;20034;-72
2021/07/17 03:10:53;;;;;;;20.15;9.77;;;;;;;16.87;83.50;102188.56;5023612;28;20026;-72
2021/07/17 03:13:19;;;;;;;27.38;10.73;;;;;;;16.87;83.49;102191.19;5040094;28;20061;-72
2021/07/17 03:15:47;;;;;;;25.23;10.40;;;;;;;16.86;83.24;102191.38;5015157;28;20076;-72
2021/07/17 03:18:13;;;;;;;27.25;10.77;;;;;;;16.82;83.34;102193.50;5031069;28;20517;-72
2021/07/17 03:20:39;;;;;;;28.00;11.52;;;;;;;16.81;83.55;102199.66;5029412;28;20060;-72
2021/07/17 03:23:05;;;;;;;29.88;11.30;;;;;;;16.79;83.32;102195.59;5013057;28;20487;-72
2021/07/17 03:25:31;;;;;;;26.40;11.35;;;;;;;16.80;83.60;102205.91;5028834;28;20021;-72
2021/07/17 03:27:56;;;;;;;29.95;11.07;;;;;;;16.79;83.88;102196.38;5031892;28;20510;-72
2021/07/17 03:30:22;;;;;;;33.75;11.93;;;;;;;16.80;83.92;102190.19;5036511;28;20034;-71
2021/07/17 03:32:47;;;;;;;37.75;11.68;;;;;;;16.78;84.03;102186.88;5033972;28;20033;-72
2021/07/17 03:35:13;;;;;;;35.70;12.18;;;;;;;16.79;84.08;102193.78;5024570;28;20603;-72
2021/07/17 03:37:38;;;;;;;27.45;10.68;;;;;;;16.81;84.15;102186.56;5022448;28;20060;-72
2021/07/17 03:40:05;;;;;;;24.33;10.85;;;;;;;16.81;83.96;102193.63;5023490;28;20052;-72
2021/07/17 03:42:31;;;;;;;23.85;9.65;;;;;;;16.78;83.92;102184.25;5029221;28;20025;-72
2021/07/17 03:44:56;;;;;;;33.70;12.00;;;;;;;16.79;84.14;102190.34;5024671;28;20422;-72
2021/07/17 03:47:22;;;;;;;29.35;10.35;;;;;;;16.80;83.93;102189.34;5019056;28;20064;-72
2021/07/17 03:49:47;;;;;;;34.38;10.90;;;;;;;16.85;83.76;102189.72;5019707;28;20044;-72
2021/07/17 03:52:13;;;;;;;29.30;11.00;;;;;;;16.83;83.93;102187.25;5027941;28;20048;-72
2021/07/17 03:54:39;;;;;;;40.42;12.52;;;;;;;16.80;83.92;102190.19;5025789;28;20486;-72
2021/07/17 03:57:04;;;;;;;35.90;12.52;;;;;;;16.74;84.07;102189.03;5022338;28;20045;-72
2021/07/17 03:59:30;;;;;;;32.10;12.20;;;;;;;16.71;83.99;102194.59;5033890;28;20072;-72
2021/07/17 04:01:55;;;;;;;29.75;10.80;;;;;;;16.76;83.93;102193.28;5027185;28;20049;-72
2021/07/17 04:04:21;;;;;;;26.67;11.73;;;;;;;16.79;83.68;102192.97;5032952;28;20041;-72
2021/07/17 04:06:46;;;;;;;33.08;12.85;;;;;;;16.78;83.82;102194.75;5028926;28;20030;-72
2021/07/17 04:09:12;;;;;;;31.73;11.68;;;;;;;16.76;84.03;102193.28;5031197;28;20600;-71
2021/07/17 04:11:37;;;;;;;28.30;11.52;;;;;;;16.76;84.05;102198.50;5030690;28;20037;-72
2021/07/17 04:14:03;;;;;;;25.30;10.55;;;;;;;16.76;84.21;102201.13;5036559;28;20033;-72
2021/07/17 04:16:29;;;;;;;36.42;12.52;;;;;;;16.79;84.05;102200.81;5033093;28;20033;-72
2021/07/17 04:18:54;;;;;;;31.90;11.88;;;;;;;16.76;84.05;102201.13;5034261;28;20088;-72
2021/07/17 04:21:20;;;;;;;27.27;12.80;;;;;;;16.76;83.76;102201.94;5027907;28;20033;-72
2021/07/17 04:23:45;;;;;;;30.20;10.80;;;;;;;16.73;84.19;102204.91;5030103;28;20497;-72
2021/07/17 04:26:11;;;;;;;39.33;12.90;;;;;;;16.78;83.67;102202.59;5011120;28;20025;-71
2021/07/17 04:28:36;;;;;;;25.17;10.40;;;;;;;16.78;84.07;102213.06;5030658;28;20567;-72
2021/07/17 04:31:03;;;;;;;36.75;12.05;;;;;;;16.81;83.81;102202.28;5031186;28;20091;-72
2021/07/17 04:33:29;;;;;;;30.20;11.38;;;;;;;16.80;83.58;102207.69;5024496;28;20048;-72
2021/07/17 04:35:54;;;;;;;32.47;10.90;;;;;;;16.79;83.72;102212.09;5030312;28;20037;-71
2021/07/17 04:38:20;;;;;;;44.17;12.35;;;;;;;16.82;83.62;102210.94;5027553;28;20061;-72
2021/07/17 04:40:45;;;;;;;33.67;11.45;;;;;;;16.78;83.96;102210.47;5022646;28;20034;-72
2021/07/17 04:43:11;;;;;;;31.08;11.50;;;;;;;16.78;84.06;102210.47;5028527;28;20056;-71
2021/07/17 04:45:36;;;;;;;24.00;11.02;;;;;;;16.77;84.14;102211.44;5028304;28;20052;-72
2021/07/17 04:48:04;;;;;;;32.03;11.18;;;;;;;16.80;83.62;102207.69;5026961;28;20029;-72
2021/07/17 04:50:36;;;;;;;26.50;10.85;;;;;;;16.82;83.79;102200.47;5020529;28;20037;-72
2021/07/17 04:53:02;;;;;;;31.38;11.30;;;;;;;16.85;83.55;102197.56;5020034;28;20761;-72
2021/07/17 04:55:27;;;;;;;24.33;9.80;;;;;;;16.86;83.48;102201.84;5028657;28;20033;-71
2021/07/17 04:57:53;;;;;;;34.45;11.38;;;;;;;16.90;83.63;102203.97;5026839;28;20457;-72
2021/07/17 05:00:19;;;;;;;28.25;10.25;;;;;;;16.87;83.61;102196.41;5035574;28;20036;-72
2021/07/17 05:02:52;;;;;;;32.00;11.55;;;;;;;16.91;83.48;102200.38;5037627;28;20041;-72
2021/07/17 05:05:19;;;;;;;41.38;11.45;;;;;;;16.91;83.59;102208.22;5013507;28;20045;-72
2021/07/17 05:07:45;;;;;;;33.50;11.45;;;;;;;16.91;83.17;102204.78;5021315;28;20104;-72
2021/07/17 05:10:13;;;;;;;33.45;11.27;;;;;;;16.94;83.21;102199.22;5029911;28;20051;-72
2021/07/17 05:12:39;;;;;;;35.80;12.27;;;;;;;17.00;82.79;102202.97;5025781;28;20041;-71
2021/07/17 05:15:09;;;;;;;28.50;10.88;;;;;;;16.91;83.19;102205.59;5023632;28;20087;-72
2021/07/17 05:17:34;;;;;;;25.88;10.25;;;;;;;16.93;83.56;102202.81;5026897;28;20120;-72
2021/07/17 05:20:00;;;;;;;35.33;11.82;;;;;;;16.92;83.23;102206.41;5052207;28;20117;-74
2021/07/17 05:22:25;;;;;;;31.20;11.00;;;;;;;16.94;82.51;102209.69;5042407;28;20037;-72
2021/07/17 05:24:51;;;;;;;42.45;11.98;;;;;;;16.99;82.73;102214.41;5036200;28;20079;-73
2021/07/17 05:27:17;;;;;;;25.70;11.18;;;;;;;16.95;82.80;102200.84;5033372;28;20076;-72
2021/07/17 05:29:42;;;;;;;36.70;12.50;;;;;;;16.95;82.92;102206.06;5026438;28;20068;-72
2021/07/17 05:32:08;;;;;;;29.63;10.95;;;;;;;16.98;82.95;102203.13;5021988;28;20044;-73
2021/07/17 05:34:33;;;;;;;34.03;11.50;;;;;;;17.00;82.35;102195.13;5034964;28;20033;-72
2021/07/17 05:36:59;;;;;;;24.63;10.35;;;;;;;16.96;82.37;102199.06;5023584;28;20156;-73
2021/07/17 05:39:24;;;;;;;28.40;11.02;;;;;;;16.98;82.05;102205.75;5030670;28;20618;-73
2021/07/17 05:41:50;;;;;;;41.45;11.70;;;;;;;17.03;81.19;102203.47;5030005;28;20433;-72
2021/07/17 05:44:15;;;;;;;28.88;10.98;;;;;;;17.03;81.55;102213.13;5017837;28;20042;-72
2021/07/17 05:46:41;;;;;;;27.98;9.38;;;;;;;16.96;81.50;102206.91;5030415;28;20715;-72
2021/07/17 05:49:07;;;;;;;27.35;10.27;;;;;;;16.97;81.25;102205.91;5029720;28;20033;-72
2021/07/17 05:51:32;;;;;;;24.02;9.43;;;;;;;17.02;81.11;102201.81;5030277;28;20032;-73
2021/07/17 05:53:58;;;;;;;38.47;11.55;;;;;;;16.99;81.37;102207.41;5008484;28;20041;-72
2021/07/17 05:56:23;;;;;;;32.63;10.82;;;;;;;17.21;81.00;102208.50;5027117;28;20029;-73
2021/07/17 05:58:49;;;;;;;24.45;10.48;;;;;;;17.25;80.48;102217.72;5034494;28;20039;-72
2021/07/17 06:01:14;;;;;;;42.05;12.80;;;;;;;17.27;79.44;102213.13;5031552;28;20020;-72
2021/07/17 06:03:42;;;;;;;25.70;9.50;;;;;;;17.23;79.33;102216.22;5042968;28;20036;-73
2021/07/17 06:06:09;;;;;;;27.05;9.13;;;;;;;17.34;78.87;102217.69;5026363;28;20053;-74
2021/07/17 06:08:34;;;;;;;22.92;9.40;;;;;;;17.24;79.33;102220.50;5040752;28;20043;-72
2021/07/17 06:11:00;;;;;;;23.63;8.50;;;;;;;17.24;79.57;102218.69;5033205;28;20364;-72
2021/07/17 06:13:26;;;;;;;24.40;9.07;;;;;;;17.33;79.46;102219.50;5030442;28;20026;-72
2021/07/17 06:15:52;;;;;;;23.58;9.60;;;;;;;17.38;79.12;102230.28;5032599;28;20402;-73
2021/07/17 06:18:17;;;;;;;34.40;10.63;;;;;;;17.43;77.91;102232.41;5015649;28;20114;-72
2021/07/17 06:20:43;;;;;;;29.30;9.30;;;;;;;17.41;76.81;102234.41;5022027;28;20574;-72
2021/07/17 06:23:08;;;;;;;21.92;8.73;;;;;;;17.46;75.78;102234.69;5024842;28;20569;-73
2021/07/17 06:25:34;;;;;;;24.05;9.60;;;;;;;17.48;76.70;102233.56;5022054;28;20029;-75
2021/07/17 06:27:59;;;;;;;24.98;9.15;;;;;;;17.50;76.88;102236.84;5025708;28;20457;-73
2021/07/17 06:30:25;;;;;;;20.58;8.65;;;;;;;17.49;76.00;102237.00;5034666;28;20060;-73
2021/07/17 06:32:50;;;;;;;23.13;8.93;;;;;;;17.73;75.14;102233.50;5028465;28;20049;-73
2021/07/17 06:35:16;;;;;;;28.65;9.25;;;;;;;17.86;74.16;102231.19;5029325;28;20564;-72
2021/07/17 06:37:42;;;;;;;24.80;9.57;;;;;;;17.81;74.61;102236.09;5035915;28;20067;-73
2021/07/17 06:40:13;;;;;;;27.13;11.13;;;;;;;17.86;74.50;102239.06;5033928;28;20037;-73
2021/07/17 06:42:43;;;;;;;30.27;9.73;;;;;;;17.75;74.56;102243.81;5022691;28;20033;-72
2021/07/17 06:45:10;;;;;;;26.10;9.07;;;;;;;17.77;75.43;102236.59;5035806;28;20029;-72
2021/07/17 06:47:35;;;;;;;32.03;9.70;;;;;;;17.75;74.88;102242.00;5030713;28;20044;-73
2021/07/17 06:50:02;;;;;;;26.15;8.10;;;;;;;17.72;74.46;102244.97;5036013;28;20034;-72
2021/07/17 06:52:27;;;;;;;27.02;8.85;;;;;;;17.73;74.79;102248.44;5033368;28;20243;-73
2021/07/17 06:54:53;;;;;;;22.42;8.55;;;;;;;17.67;75.04;102250.72;5021780;28;20406;-73
2021/07/17 06:57:18;;;;;;;57.50;24.30;;;;;;;17.64;75.82;102245.81;5028425;28;20045;-73
2021/07/17 06:59:44;;;;;;;37.50;15.02;;;;;;;17.65;76.07;102249.22;5032711;28;20033;-72
2021/07/17 07:02:09;;;;;;;24.05;8.73;;;;;;;17.73;76.14;102253.66;5024536;28;20056;-72
2021/07/17 07:04:34;;;;;;;29.52;8.70;;;;;;;17.77;75.96;102261.03;5020885;28;20038;-72
2021/07/17 07:07:00;;;;;;;26.65;9.50;;;;;;;17.80;75.94;102252.81;5022637;28;20033;-75
2021/07/17 07:09:25;;;;;;;24.33;9.05;;;;;;;17.73;76.35;102264.97;5025287;28;20038;-73
2021/07/17 07:11:51;;;;;;;32.10;10.50;;;;;;;17.82;76.03;102263.13;5027730;28;20018;-74
2021/07/17 07:14:17;;;;;;;28.02;10.05;;;;;;;17.70;76.26;102260.88;5022633;28;20044;-73
2021/07/17 07:16:43;;;;;;;26.70;9.27;;;;;;;17.67;75.86;102271.72;5025211;28;20111;-72
2021/07/17 07:19:09;;;;;;;27.73;9.57;;;;;;;17.67;76.44;102281.38;5024863;28;20541;-74
2021/07/17 07:21:35;;;;;;;28.55;10.18;;;;;;;17.66;76.44;102279.75;5034048;28;20034;-73
2021/07/17 07:24:00;;;;;;;27.98;8.27;;;;;;;17.66;76.57;102279.75;5017406;28;20040;-73
2021/07/17 07:26:26;;;;;;;22.90;9.13;;;;;;;17.68;76.55;102281.19;5029775;28;20030;-73
2021/07/17 07:28:56;;;;;;;25.42;9.25;;;;;;;17.76;76.59;102288.22;5029684;28;20147;-73
2021/07/17 07:31:22;;;;;;;25.27;10.25;;;;;;;17.81;76.12;102290.38;5016289;28;20032;-73
2021/07/17 07:33:47;;;;;;;29.38;9.98;;;;;;;17.78;76.95;102281.03;5033559;28;20048;-74
2021/07/17 07:36:12;;;;;;;29.88;10.10;;;;;;;17.83;77.30;102288.38;5033055;28;20453;-73
2021/07/17 07:38:38;;;;;;;29.38;9.10;;;;;;;17.84;76.99;102280.38;5030333;28;20044;-74
2021/07/17 07:41:04;;;;;;;26.58;9.45;;;;;;;17.87;76.82;102281.84;5026306;28;20406;-73
2021/07/17 07:43:29;;;;;;;32.47;9.80;;;;;;;17.90;76.47;102279.72;5022313;28;20044;-73
2021/07/17 07:45:54;;;;;;;25.27;9.68;;;;;;;18.00;76.81;102284.75;5031910;28;20365;-72
2021/07/17 07:48:20;;;;;;;23.52;8.57;;;;;;;18.09;76.38;102281.13;5019709;28;20040;-74
2021/07/17 07:50:45;;;;;;;34.08;9.82;;;;;;;18.31;75.19;102278.75;5026174;28;20045;-74
2021/07/17 07:53:11;;;;;;;22.55;8.77;;;;;;;18.22;75.15;102277.94;5028416;28;20502;-73
2021/07/17 07:55:36;;;;;;;20.95;8.90;;;;;;;18.47;74.93;102283.91;5029613;28;20029;-73
2021/07/17 07:58:02;;;;;;;21.08;8.18;;;;;;;18.71;74.64;102283.94;5029505;28;20025;-74
2021/07/17 08:00:27;;;;;;;15.93;7.90;;;;;;;18.82;73.28;102283.56;5029785;28;20041;-73
2021/07/17 08:02:53;;;;;;;27.00;8.93;;;;;;;18.93;72.65;102282.31;5014518;28;20034;-73
2021/07/17 08:05:19;;;;;;;34.08;10.63;;;;;;;19.06;71.90;102274.66;5023862;28;20069;-72
2021/07/17 08:07:45;;;;;;;24.67;9.15;;;;;;;19.06;72.12;102278.13;5026034;28;20049;-73
2021/07/17 08:10:11;;;;;;;28.55;8.43;;;;;;;19.03;72.27;102275.03;5025747;28;20112;-73
2021/07/17 08:12:36;;;;;;;25.95;8.85;;;;;;;19.02;73.09;102274.22;5027845;28;20068;-73
2021/07/17 08:15:02;;;;;;;27.63;8.20;;;;;;;19.11;73.01;102282.84;5027418;28;20038;-73
2021/07/17 08:17:28;;;;;;;30.30;9.32;;;;;;;19.18;73.16;102280.34;5027816;28;20045;-73
2021/07/17 08:19:53;;;;;;;31.20;10.38;;;;;;;19.15;72.73;102280.69;5027328;28;20042;-73
2021/07/17 08:22:19;;;;;;;26.42;8.90;;;;;;;19.21;72.13;102283.44;5017805;28;20060;-73
2021/07/17 08:24:44;;;;;;;21.88;7.25;;;;;;;19.44;71.63;102280.75;5020465;28;20041;-72
2021/07/17 08:27:10;;;;;;;28.13;8.45;;;;;;;19.69;70.65;102274.44;5026565;28;20040;-73
2021/07/17 08:29:35;;;;;;;23.90;7.82;;;;;;;20.00;70.03;102276.91;5007576;28;20033;-74
2021/07/17 08:32:01;;;;;;;20.73;8.32;;;;;;;20.12;68.65;102272.81;5019769;28;20084;-73
2021/07/17 08:34:26;;;;;;;19.23;9.15;;;;;;;20.32;67.93;102278.28;5030860;28;20039;-72
2021/07/17 08:36:52;;;;;;;23.73;8.43;;;;;;;21.12;65.25;102270.41;5029412;28;20029;-73
2021/07/17 08:39:17;;;;;;;20.55;8.32;;;;;;;21.29;64.29;102274.38;5021002;28;20045;-74
2021/07/17 08:41:48;;;;;;;18.75;8.35;;;;;;;21.19;63.13;102284.44;5018622;28;20479;-75
2021/07/17 08:44:16;;;;;;;24.33;9.05;;;;;;;21.29;64.20;102276.22;5030138;28;20493;-74
2021/07/17 08:46:42;;;;;;;22.90;9.30;;;;;;;21.46;63.45;102274.94;5026480;28;20041;-73
2021/07/17 08:49:10;;;;;;;22.00;8.20;;;;;;;21.46;64.33;102276.78;5014454;28;20033;-74
2021/07/17 08:51:37;;;;;;;23.50;7.78;;;;;;;21.74;64.25;102272.28;5029060;28;20017;-74
2021/07/17 08:54:03;;;;;;;22.95;7.72;;;;;;;21.73;64.71;102273.28;5023079;28;20076;-73
2021/07/17 08:56:30;;;;;;;21.23;7.00;;;;;;;21.51;63.88;102285.75;5016864;28;20397;-74
2021/07/17 08:58:55;;;;;;;21.08;7.53;;;;;;;21.77;62.61;102281.63;5023230;28;20021;-75
2021/07/17 09:01:21;;;;;;;15.23;6.47;;;;;;;22.16;61.24;102278.34;5018106;28;20496;-75
2021/07/17 09:03:48;;;;;;;30.60;8.48;;;;;;;22.68;60.00;102275.28;5019968;28;20039;-75
2021/07/17 09:06:14;;;;;;;17.70;6.07;;;;;;;23.17;58.56;102268.81;5031956;28;20084;-75
2021/07/17 09:08:39;;;;;;;17.88;6.25;;;;;;;23.07;58.14;102268.41;5030924;28;20425;-75
2021/07/17 09:11:05;;;;;;;15.07;5.85;;;;;;;23.29;58.16;102271.66;5017566;28;20034;-76
2021/07/17 09:13:33;;;;;;;18.55;5.20;;;;;;;23.84;56.68;102266.06;5029848;28;20129;-75
2021/07/17 09:16:12;;;;;;;20.40;5.63;;;;;;;23.39;57.62;102272.03;5015975;28;20034;-75
2021/07/17 09:18:47;;;;;;;14.38;4.82;;;;;;;23.17;59.11;102260.88;5020527;28;20438;-74
2021/07/17 09:21:16;;;;;;;18.55;4.72;;;;;;;23.20;59.49;102260.44;5029791;28;20048;-74
2021/07/17 09:23:44;;;;;;;19.48;5.85;;;;;;;23.62;57.86;102252.22;5025198;28;20049;-73
2021/07/17 09:26:14;;;;;;;18.00;5.80;;;;;;;23.70;57.10;102252.03;5019888;28;20076;-75
2021/07/17 09:28:41;;;;;;;16.55;4.90;;;;;;;23.84;55.73;102258.91;5028635;28;20032;-74
2021/07/17 09:31:07;;;;;;;17.95;5.40;;;;;;;24.26;53.75;102258.50;5018940;28;20034;-74
2021/07/17 09:33:34;;;;;;;13.68;4.63;;;;;;;24.40;54.87;102254.78;5027052;28;20041;-74
2021/07/17 09:35:59;;;;;;;16.08;4.68;;;;;;;24.54;55.07;102247.56;5018694;28;20025;-74
2021/07/17 09:38:27;;;;;;;11.30;4.47;;;;;;;24.73;55.42;102259.06;5021998;28;20364;-75
2021/07/17 09:40:56;;;;;;;14.52;4.38;;;;;;;24.74;54.73;102257.25;5015113;28;20041;-75
2021/07/17 09:43:42;;;;;;;12.93;4.20;;;;;;;24.83;53.62;102251.44;5013541;28;20069;-74
2021/07/17 09:46:26;;;;;;;14.40;4.00;;;;;;;25.02;51.94;102243.53;5018947;28;20041;-77
2021/07/17 09:48:59;;;;;;;13.93;4.75;;;;;;;25.02;52.41;102243.53;5007177;28;20099;-74
2021/07/17 09:51:35;;;;;;;13.82;4.60;;;;;;;25.01;52.37;102239.25;5022939;28;20030;-76
2021/07/17 09:54:09;;;;;;;18.73;4.72;;;;;;;25.01;54.72;102241.91;5015204;28;20125;-75
2021/07/17 09:56:37;;;;;;;13.68;4.50;;;;;;;24.75;54.10;102248.25;5007460;28;20467;-74
2021/07/17 09:59:08;;;;;;;11.95;4.32;;;;;;;24.42;53.07;102244.78;5024533;28;20113;-76
2021/07/17 10:01:34;;;;;;;14.40;4.22;;;;;;;24.63;54.65;102238.31;5024674;28;20038;-75
2021/07/17 10:04:08;;;;;;;13.02;4.07;;;;;;;24.89;52.15;102238.34;5022487;28;20041;-76
2021/07/17 10:06:39;;;;;;;14.43;5.25;;;;;;;25.20;53.25;102240.09;5021753;28;20044;-78
2021/07/17 10:09:12;;;;;;;14.07;4.75;;;;;;;24.99;52.57;102236.81;5024315;28;20038;-76
2021/07/17 10:11:39;;;;;;;10.27;3.55;;;;;;;25.17;52.57;102229.94;5027526;28;20460;-76
2021/07/17 10:14:22;;;;;;;13.23;3.88;;;;;;;25.38;51.60;102242.78;5023620;28;20113;-76
2021/07/17 10:16:49;;;;;;;12.38;3.90;;;;;;;25.35;52.57;102237.91;5034380;28;20433;-76
2021/07/17 10:19:17;;;;;;;14.27;3.70;;;;;;;25.33;52.27;102245.28;5029895;28;20129;-75
2021/07/17 10:21:44;;;;;;;12.45;3.58;;;;;;;25.33;51.26;102244.50;5024811;28;20029;-76
2021/07/17 10:24:11;;;;;;;13.02;3.40;;;;;;;25.32;52.49;102237.56;5035070;28;20123;-75
2021/07/17 10:26:37;;;;;;;14.77;4.50;;;;;;;25.68;54.44;102236.75;5027504;28;20042;-76
2021/07/17 10:29:09;;;;;;;11.27;4.05;;;;;;;25.64;51.03;102235.59;5032230;28;20021;-77
2021/07/17 10:31:36;;;;;;;10.32;2.97;;;;;;;25.60;50.97;102231.75;5039590;28;20111;-76
2021/07/17 10:34:02;;;;;;;9.40;2.83;;;;;;;25.78;52.11;102231.72;5032949;28;20029;-75
2021/07/17 10:36:29;;;;;;;8.63;3.30;;;;;;;25.68;50.02;102225.31;5028141;28;20044;-75
2021/07/17 10:39:01;;;;;;;8.85;3.78;;;;;;;25.72;50.50;102227.31;5037238;28;20033;-77
2021/07/17 10:41:30;;;;;;;9.60;3.58;;;;;;;25.63;51.45;102226.78;5029901;28;20087;-77
2021/07/17 10:43:56;;;;;;;8.00;3.10;;;;;;;25.77;52.81;102226.66;5029982;28;20049;-76
2021/07/17 10:46:34;;;;;;;10.90;3.60;;;;;;;25.94;51.35;102226.88;5031984;28;20104;-76
2021/07/17 10:49:01;;;;;;;9.75;2.72;;;;;;;26.16;50.87;102225.34;5022024;28;20043;-76
2021/07/17 10:51:30;;;;;;;10.27;3.28;;;;;;;26.07;49.17;102224.03;5027681;28;20069;-76
2021/07/17 10:53:58;;;;;;;11.27;3.05;;;;;;;26.05;51.40;102220.78;5028014;28;20095;-76
2021/07/17 10:56:26;;;;;;;8.48;3.63;;;;;;;25.79;49.44;102232.53;5033458;28;20041;-76
2021/07/17 10:58:53;;;;;;;22.88;4.35;;;;;;;25.59;50.85;102233.56;5016495;28;20387;-78
2021/07/17 11:01:19;;;;;;;10.63;2.92;;;;;;;25.71;52.38;102223.03;5022418;28;20132;-77
2021/07/17 11:03:45;;;;;;;6.57;3.15;;;;;;;25.79;52.74;102227.22;5020883;28;20034;-76
2021/07/17 11:06:29;;;;;;;9.00;3.10;;;;;;;26.16;51.84;102225.34;5051399;28;20037;-77
2021/07/17 11:08:56;;;;;;;35.75;4.47;;;;;;;26.29;50.18;102221.66;5033947;28;20063;-76
2021/07/17 11:11:27;;;;;;;12.38;3.08;;;;;;;26.23;49.08;102218.06;5025608;28;20057;-75